Página principal
METAR-TAF:

METAR-TAF

Aeroportos :

Rasht, Irão

latitude: 37-12N, longitude: 049-38E, altura: -7 m

Observação actual do tempo

O boletim foi feito há 36 minutos, às 00:00 UTC
Vento calmo
Temperatura 14°C
Humidade 94%
Pressão 1022 hPa
Visibilidade: 4000 m
neblina

METAR: OIGG 180000Z 00000KT 4000 BR NSC 14/13 Q1022

Hora: 04:06 (00:36 UTC)


TAF: em falta

Observações e previsões do tempo de mais de 4000 aeroportos (mensagens METAR e TAF).

As estações disponíveis são os pontos amarelos e vermelhos sobre o mapa.

Mova o rato sobre o mapa para ver o nome da estação.

Depois clique no ponto para visualizar as observações e previsões meteorológicas.

Para alterar o mapa : clique nos botões verdes com uma cruz preta para aumentar o zoom; no botão verde com uma pitada de zoom; ou nas setas verdes para mapas adjacentes.


METAR-TAF: